This is the latest recevied weather packets stored in our database for station/object W7TRD. If no packets are shown the sender has not sent any weather packets the latest 10 day(s).
| Time | Temp. | Humidity | Pressure | Rain* | Wind** | Luminosity | Snow |
|---|---|---|---|---|---|---|---|
| 1777560287 | 12.22° C | 81% | 1020.9 hPa | 0 mm | - | 102 W/m² | - |
| 1777559985 | 12.22° C | 81% | 1020.3 hPa | 0 mm | - | 95 W/m² | - |
| 1777559685 | 11.67° C | 82% | 1020.3 hPa | 0 mm | - | 89 W/m² | - |
| 1777559383 | 11.67° C | 82% | 1020.3 hPa | 0 mm | - | 80 W/m² | - |
| 1777559079 | 11.67° C | 82% | 1020.5 hPa | 0 mm | - | 74 W/m² | - |
| 1777558773 | 10.56° C | 86% | 1020.4 hPa | 0 mm | - | 67 W/m² | - |
| 1777558470 | 10° C | 88% | 1020.4 hPa | 0 mm | - | 57 W/m² | - |
| 1777558166 | 10° C | 89% | 1020.3 hPa | 0 mm | - | 52 W/m² | - |
| 1777557862 | 9.44° C | 90% | 1020.3 hPa | 0 mm | - | 47 W/m² | - |
| 1777557560 | 9.44° C | 90% | 1020.3 hPa | 0 mm | - | 42 W/m² | - |
| 1777557256 | 8.89° C | 91% | 1020.2 hPa | 0 mm | - | 37 W/m² | - |
| 1777556952 | 8.33° C | 94% | 1020.5 hPa | 0 mm | - | 35 W/m² | - |
| 1777556648 | 7.78° C | 94% | 1020.3 hPa | 0 mm | - | 36 W/m² | - |
| 1777556343 | 7.22° C | 96% | 1020.3 hPa | 0 mm | - | 34 W/m² | - |
| 1777556039 | 6.67° C | 96% | 1020.1 hPa | 0 mm | - | 27 W/m² | - |
| 1777555734 | 6.67° C | 97% | 1020.1 hPa | 0 mm | - | 21 W/m² | - |
| 1777555430 | 6.67° C | 97% | 1020.1 hPa | 0 mm | - | 17 W/m² | - |
| 1777555126 | 6.67° C | 97% | 1020.2 hPa | 0 mm | - | 13 W/m² | - |
| 1777554824 | 6.67° C | 97% | 1020.1 hPa | 0 mm | - | 9 W/m² | - |
| 1777554521 | 6.67° C | 97% | 1020.3 hPa | 0 mm | - | 6 W/m² | - |
| 1777554218 | 6.67° C | 96% | 1020.1 hPa | 0 mm | - | 4 W/m² | - |
| 1777553915 | 6.67° C | 96% | 1020.1 hPa | 0 mm | - | 2 W/m² | - |
| 1777553611 | 6.67° C | 96% | 1020.2 hPa | 0 mm | - | 1 W/m² | - |
| 1777553308 | 6.67° C | 96% | 1020.3 hPa | 0 mm | - | 1 W/m² | - |
| 1777553003 | 6.67° C | 96% | 1020.3 hPa | 0 mm | - | 0 W/m² | - |
* Rain latest hour (hover to see other rain measurements)
** Current wind speed in m/s (hover to see current wind gust speed)